createdAt,value
2023-05-24T00:00:50.753Z,62.00
2023-05-24T00:02:16.054Z,62.80
2023-05-24T00:04:00.330Z,62.98
2023-05-24T00:05:32.780Z,60.68
2023-05-24T00:06:54.090Z,58.09
2023-05-24T00:08:16.608Z,56.08
2023-05-24T00:09:48.360Z,55.75
2023-05-24T00:11:16.670Z,57.69
2023-05-24T00:12:36.926Z,58.93
2023-05-24T00:13:59.465Z,59.89
2023-05-24T00:15:31.540Z,61.46
2023-05-24T00:16:52.171Z,62.18
2023-05-24T00:18:24.153Z,63.79
2023-05-24T00:19:58.211Z,62.27
2023-05-24T00:21:30.224Z,60.35
2023-05-24T00:23:02.643Z,58.03
2023-05-24T00:24:22.857Z,57.07
2023-05-24T00:25:45.796Z,56.91
2023-05-24T00:27:20.348Z,57.64
2023-05-24T00:28:40.613Z,59.13
2023-05-24T00:30:10.441Z,60.63
2023-05-24T00:31:42.302Z,61.69
2023-05-24T00:33:06.322Z,62.43
2023-05-24T00:34:29.473Z,63.62
2023-05-24T00:36:05.387Z,63.26
2023-05-24T00:37:26.943Z,60.08
2023-05-24T00:38:55.334Z,55.78
2023-05-24T00:40:34.442Z,53.51
2023-05-24T00:42:11.438Z,54.73
2023-05-24T00:43:53.517Z,55.78
2023-05-24T00:45:13.823Z,57.16
2023-05-24T00:46:34.952Z,58.34
2023-05-24T00:48:06.704Z,59.71
2023-05-24T00:49:43.714Z,60.43
2023-05-24T00:51:15.652Z,61.30
2023-05-24T00:52:39.098Z,62.21
2023-05-24T00:54:19.214Z,63.19
2023-05-24T00:56:02.758Z,63.06
2023-05-24T00:57:24.551Z,60.67
2023-05-24T00:58:45.286Z,58.06
2023-05-24T01:00:24.225Z,56.39
2023-05-24T01:02:04.123Z,56.81
2023-05-24T01:03:36.942Z,58.04
2023-05-24T01:05:12.772Z,58.99
2023-05-24T01:06:35.587Z,60.16
2023-05-24T01:08:18.449Z,61.03
2023-05-24T01:09:57.898Z,61.93
2023-05-24T01:11:41.548Z,63.10
2023-05-24T01:13:13.455Z,62.64
2023-05-24T01:14:36.133Z,60.52
2023-05-24T01:16:10.129Z,57.84
2023-05-24T01:17:45.541Z,56.39
2023-05-24T01:19:38.408Z,56.99
2023-05-24T01:21:22.634Z,58.39
2023-05-24T01:23:14.783Z,59.96
2023-05-24T01:24:37.731Z,61.00
2023-05-24T01:26:21.501Z,61.99
2023-05-24T01:28:05.609Z,63.19
2023-05-24T01:29:40.104Z,62.93
2023-05-24T01:31:12.733Z,60.35
2023-05-24T01:32:40.544Z,57.87
2023-05-24T01:34:08.370Z,56.37
2023-05-24T01:35:42.554Z,56.94
2023-05-24T01:37:26.220Z,58.37
2023-05-24T01:38:58.129Z,59.64
2023-05-24T01:40:42.174Z,60.86
2023-05-24T01:42:14.898Z,61.97
2023-05-24T01:43:58.872Z,63.20
2023-05-24T01:45:21.775Z,63.33
2023-05-24T01:47:05.325Z,60.82
2023-05-24T01:48:37.862Z,57.91
2023-05-24T01:50:10.084Z,56.28
2023-05-24T01:51:37.712Z,57.11
2023-05-24T01:53:05.602Z,58.39
2023-05-24T01:54:28.192Z,59.50
2023-05-24T01:56:02.332Z,60.68
2023-05-24T01:57:25.120Z,61.85
2023-05-24T01:59:00.219Z,63.17
2023-05-24T02:00:32.358Z,63.25
2023-05-24T02:02:16.375Z,61.01
2023-05-24T02:04:08.873Z,58.19
2023-05-24T02:05:48.680Z,56.73
2023-05-24T02:07:23.395Z,57.74
2023-05-24T02:09:06.966Z,59.52
2023-05-24T02:10:46.917Z,61.17
2023-05-24T02:12:18.988Z,62.56
2023-05-24T02:13:39.478Z,64.17
2023-05-24T02:15:31.878Z,62.84
2023-05-24T02:17:15.511Z,59.97
2023-05-24T02:18:45.994Z,57.52
2023-05-24T02:20:20.492Z,57.10
2023-05-24T02:22:04.186Z,58.51
2023-05-24T02:23:48.421Z,60.32
2023-05-24T02:25:20.830Z,61.78
2023-05-24T02:27:04.448Z,63.63
2023-05-24T02:28:29.324Z,64.17
2023-05-24T02:30:12.620Z,62.26
2023-05-24T02:31:56.406Z,59.86
2023-05-24T02:33:30.398Z,57.64
2023-05-24T02:34:58.624Z,57.52
2023-05-24T02:36:38.166Z,58.94
2023-05-24T02:38:01.868Z,60.57
2023-05-24T02:39:45.312Z,62.33
2023-05-24T02:41:17.110Z,64.03
2023-05-24T02:42:51.325Z,63.18
2023-05-24T02:44:11.939Z,61.36
2023-05-24T02:45:51.865Z,59.33
2023-05-24T02:47:33.088Z,57.35
2023-05-24T02:49:25.265Z,58.03
2023-05-24T02:51:11.135Z,60.09
2023-05-24T02:52:45.542Z,61.73
2023-05-24T02:54:34.222Z,63.85
2023-05-24T02:56:26.930Z,63.77
2023-05-24T02:57:59.239Z,61.24
2023-05-24T02:59:25.523Z,59.33
2023-05-24T03:01:00.845Z,57.53
2023-05-24T03:02:41.775Z,57.81
2023-05-24T03:04:25.628Z,59.79
2023-05-24T03:06:09.265Z,61.70
2023-05-24T03:07:50.584Z,64.01
2023-05-24T03:09:15.598Z,64.07
2023-05-24T03:10:50.284Z,61.77
2023-05-24T03:12:22.285Z,59.76
2023-05-24T03:14:10.401Z,57.84
2023-05-24T03:15:41.097Z,57.92
2023-05-24T03:17:13.046Z,59.46
2023-05-24T03:18:43.612Z,61.21
2023-05-24T03:20:20.699Z,62.83
2023-05-24T03:22:04.524Z,64.65
2023-05-24T03:23:32.552Z,63.14
2023-05-24T03:25:19.496Z,60.96
2023-05-24T03:26:52.249Z,58.92
2023-05-24T03:28:36.340Z,57.67
2023-05-24T03:30:20.574Z,58.61
2023-05-24T03:31:49.292Z,60.77
2023-05-24T03:33:21.729Z,62.28
2023-05-24T03:35:05.573Z,64.41
2023-05-24T03:36:49.588Z,63.26
2023-05-24T03:38:38.586Z,61.01
2023-05-24T03:40:06.244Z,59.07
2023-05-24T03:41:39.363Z,57.85
2023-05-24T03:43:32.469Z,58.64
2023-05-24T03:44:58.790Z,60.68
2023-05-24T03:46:43.441Z,62.72
2023-05-24T03:48:18.080Z,64.61
2023-05-24T03:49:50.404Z,63.72
2023-05-24T03:51:28.673Z,61.72
2023-05-24T03:53:02.914Z,60.10
2023-05-24T03:54:42.448Z,58.18
2023-05-24T03:56:14.043Z,58.07
2023-05-24T03:57:48.555Z,59.40
2023-05-24T03:59:22.669Z,61.72
2023-05-24T04:01:29.134Z,63.39
2023-05-24T04:03:12.484Z,64.06
2023-05-24T04:04:48.134Z,62.16
2023-05-24T04:06:32.084Z,60.09
2023-05-24T04:08:15.830Z,58.37
2023-05-24T04:09:59.569Z,58.24
2023-05-24T04:11:31.839Z,59.83
2023-05-24T04:13:03.548Z,61.52
2023-05-24T04:14:30.847Z,63.98
2023-05-24T04:15:54.064Z,65.11
2023-05-24T04:17:32.249Z,63.20
2023-05-24T04:19:06.405Z,61.17
2023-05-24T04:20:46.043Z,59.75
2023-05-24T04:22:26.175Z,58.02
2023-05-24T04:24:00.815Z,58.79
2023-05-24T04:25:35.218Z,60.45
2023-05-24T04:27:09.459Z,62.64
2023-05-24T04:28:41.797Z,64.62
2023-05-24T04:30:13.919Z,64.33
2023-05-24T04:31:48.623Z,62.26
2023-05-24T04:33:23.037Z,60.43
2023-05-24T04:34:55.018Z,58.65
2023-05-24T04:36:39.945Z,57.87
2023-05-24T04:38:23.719Z,59.27
2023-05-24T04:39:58.257Z,61.47
2023-05-24T04:41:23.162Z,63.25
2023-05-24T04:42:48.611Z,64.71
2023-05-24T04:44:09.197Z,63.88
2023-05-24T04:45:33.106Z,62.17
2023-05-24T04:46:57.225Z,60.48
2023-05-24T04:48:29.716Z,58.79
2023-05-24T04:50:01.836Z,57.76
2023-05-24T04:51:41.638Z,59.02
2023-05-24T04:53:21.081Z,60.84
2023-05-24T04:54:43.856Z,62.47
2023-05-24T04:56:27.945Z,64.17
2023-05-24T04:57:48.663Z,63.32
2023-05-24T04:59:14.560Z,61.56
2023-05-24T05:00:58.393Z,59.34
2023-05-24T05:02:32.793Z,57.59
2023-05-24T05:03:53.686Z,57.92
2023-05-24T05:05:25.584Z,59.52
2023-05-24T05:06:48.629Z,60.69
2023-05-24T05:08:21.070Z,62.16
2023-05-24T05:09:53.506Z,64.33
2023-05-24T05:11:14.235Z,63.63
2023-05-24T05:12:35.023Z,61.94
2023-05-24T05:13:57.280Z,60.01
2023-05-24T05:15:32.500Z,57.77
2023-05-24T05:17:16.310Z,57.19
2023-05-24T05:18:44.486Z,58.69
2023-05-24T05:20:07.209Z,60.30
2023-05-24T05:21:27.725Z,61.65
2023-05-24T05:23:11.358Z,62.97
2023-05-24T05:24:31.634Z,63.62
2023-05-24T05:26:06.065Z,62.31
2023-05-24T05:27:28.613Z,60.11
2023-05-24T05:29:03.160Z,58.22
2023-05-24T05:30:35.621Z,57.20
2023-05-24T05:31:58.194Z,58.02
2023-05-24T05:33:30.244Z,59.32
2023-05-24T05:34:50.885Z,60.42
2023-05-24T05:36:22.944Z,61.38
2023-05-24T05:37:51.109Z,62.48
2023-05-24T05:39:11.590Z,63.94
2023-05-24T05:40:39.694Z,63.27
2023-05-24T05:42:02.511Z,61.23
2023-05-24T05:43:25.636Z,58.95
2023-05-24T05:44:46.486Z,56.95
2023-05-24T05:46:10.454Z,57.13
2023-05-24T05:47:42.805Z,58.23
2023-05-24T05:49:22.866Z,59.62
2023-05-24T05:50:50.640Z,60.73
2023-05-24T05:52:34.336Z,62.15
2023-05-24T05:54:08.145Z,63.67
2023-05-24T05:55:28.653Z,63.44
2023-05-24T05:56:51.621Z,61.65
2023-05-24T05:58:11.929Z,59.45
2023-05-24T05:59:35.434Z,57.42
2023-05-24T06:01:03.223Z,57.02
2023-05-24T06:02:35.295Z,57.67
2023-05-24T06:04:02.810Z,59.02
2023-05-24T06:05:23.467Z,60.08
2023-05-24T06:06:56.247Z,61.26
2023-05-24T06:08:19.261Z,62.30
2023-05-24T06:09:47.259Z,63.63
2023-05-24T06:11:09.930Z,63.48
2023-05-24T06:12:40.281Z,61.42
2023-05-24T06:14:25.477Z,58.13
2023-05-24T06:15:55.914Z,56.49
2023-05-24T06:17:18.620Z,57.22
2023-05-24T06:18:45.056Z,58.99
2023-05-24T06:20:14.936Z,60.31
2023-05-24T06:21:49.493Z,60.99
2023-05-24T06:23:09.863Z,62.00
2023-05-24T06:24:43.134Z,62.27
2023-05-24T06:26:22.567Z,62.91
2023-05-24T06:27:54.648Z,62.81
2023-05-24T06:29:24.418Z,60.47
2023-05-24T06:30:54.699Z,57.87
2023-05-24T06:32:22.272Z,56.65
2023-05-24T06:33:52.443Z,56.81
2023-05-24T06:35:34.200Z,58.35
2023-05-24T06:37:09.767Z,59.93
2023-05-24T06:38:37.376Z,60.62
2023-05-24T06:40:09.920Z,61.38
2023-05-24T06:41:38.372Z,61.97
2023-05-24T06:43:05.782Z,62.89
2023-05-24T06:44:43.113Z,63.22
2023-05-24T06:46:08.016Z,60.86
2023-05-24T06:47:30.816Z,58.21
2023-05-24T06:48:51.572Z,56.22
2023-05-24T06:50:14.421Z,56.57
2023-05-24T06:51:37.783Z,57.11
2023-05-24T06:53:02.157Z,57.72
2023-05-24T06:54:36.920Z,58.22
2023-05-24T06:56:04.918Z,59.86
2023-05-24T06:57:26.157Z,60.72
2023-05-24T06:59:09.893Z,61.38
2023-05-24T07:00:45.464Z,61.75
2023-05-24T07:02:15.712Z,63.03
2023-05-24T07:04:07.335Z,62.89
2023-05-24T07:05:41.650Z,59.87
2023-05-24T07:07:13.817Z,57.05
2023-05-24T07:08:48.510Z,56.10
2023-05-24T07:10:08.339Z,56.48
2023-05-24T07:11:40.591Z,57.21
2023-05-24T07:13:12.841Z,58.03
2023-05-24T07:14:35.588Z,59.27
2023-05-24T07:16:09.419Z,59.98
2023-05-24T07:17:53.118Z,60.84
2023-05-24T07:19:40.182Z,61.02
2023-05-24T07:21:14.409Z,61.05
2023-05-24T07:22:46.200Z,61.46
2023-05-24T07:24:08.394Z,61.70
2023-05-24T07:25:31.328Z,62.21
2023-05-24T07:26:53.024Z,62.77
2023-05-24T07:28:37.227Z,61.71
2023-05-24T07:30:31.578Z,57.89
2023-05-24T07:31:55.216Z,55.88
2023-05-24T07:33:28.576Z,56.05
2023-05-24T07:35:13.465Z,56.99
2023-05-24T07:36:36.461Z,58.04
2023-05-24T07:38:08.278Z,59.26
2023-05-24T07:39:28.471Z,60.24
2023-05-24T07:40:51.387Z,60.65
2023-05-24T07:42:23.230Z,61.17
2023-05-24T07:43:46.301Z,62.05
2023-05-24T07:45:20.438Z,62.66
2023-05-24T07:46:54.965Z,63.16
2023-05-24T07:48:39.177Z,61.58
2023-05-24T07:50:11.206Z,58.02
2023-05-24T07:51:45.419Z,55.32
2023-05-24T07:53:19.551Z,55.26
2023-05-24T07:54:39.858Z,56.35
2023-05-24T07:56:09.604Z,57.20
2023-05-24T07:57:44.652Z,58.39
2023-05-24T07:59:04.619Z,58.62
2023-05-24T08:00:28.872Z,59.58
2023-05-24T08:02:00.735Z,60.96
2023-05-24T08:03:36.277Z,61.01
2023-05-24T08:05:08.987Z,61.28
2023-05-24T08:06:31.387Z,61.40
2023-05-24T08:08:03.272Z,61.54
2023-05-24T08:09:38.753Z,61.79
2023-05-24T08:11:01.359Z,62.24
2023-05-24T08:12:33.354Z,63.08
2023-05-24T08:14:17.038Z,62.09
2023-05-24T08:15:39.882Z,59.55
2023-05-24T08:17:11.931Z,56.88
2023-05-24T08:18:32.514Z,55.69
2023-05-24T08:20:05.704Z,55.46
2023-05-24T08:21:28.513Z,55.96
2023-05-24T08:22:59.031Z,56.87
2023-05-24T08:24:19.425Z,57.39
2023-05-24T08:26:04.293Z,57.97
2023-05-24T08:27:36.504Z,58.62
2023-05-24T08:29:06.251Z,59.57
2023-05-24T08:30:26.822Z,59.83
2023-05-24T08:32:10.938Z,60.71
2023-05-24T08:33:56.859Z,61.12
2023-05-24T08:35:22.243Z,61.21
2023-05-24T08:36:43.251Z,61.64
2023-05-24T08:38:15.136Z,62.19
2023-05-24T08:39:47.768Z,62.31
2023-05-24T08:41:07.878Z,63.16
2023-05-24T08:42:35.776Z,62.99
2023-05-24T08:43:56.406Z,60.91
2023-05-24T08:45:23.841Z,58.36
2023-05-24T08:46:51.864Z,55.56
2023-05-24T08:48:17.471Z,55.34
2023-05-24T08:49:51.835Z,56.08
2023-05-24T08:51:26.677Z,57.11
2023-05-24T08:53:16.526Z,57.67
2023-05-24T08:54:39.300Z,58.44
2023-05-24T08:56:02.214Z,59.19
2023-05-24T08:57:30.014Z,59.55
2023-05-24T08:58:50.661Z,60.29
2023-05-24T09:00:30.329Z,61.20
2023-05-24T09:01:51.283Z,61.21
2023-05-24T09:03:12.319Z,62.05
2023-05-24T09:04:44.486Z,61.69
2023-05-24T09:06:28.252Z,60.27
2023-05-24T09:07:48.838Z,56.53
2023-05-24T09:09:24.401Z,54.44
2023-05-24T09:10:54.996Z,54.43
2023-05-24T09:12:36.722Z,55.54
2023-05-24T09:14:12.910Z,56.33
2023-05-24T09:15:56.580Z,57.20
2023-05-24T09:17:19.427Z,57.71
2023-05-24T09:18:52.300Z,58.26
2023-05-24T09:20:13.079Z,58.91
2023-05-24T09:23:37.021Z,59.48
2023-05-24T09:25:22.561Z,59.81
2023-05-24T09:26:52.067Z,60.21
2023-05-24T09:28:15.847Z,61.41
2023-05-24T09:29:51.697Z,61.09
2023-05-24T09:31:23.520Z,61.64
2023-05-24T09:32:50.193Z,61.52
2023-05-24T09:34:19.682Z,62.07
2023-05-24T09:35:53.458Z,62.07
2023-05-24T09:37:26.927Z,62.32
2023-05-24T09:39:03.599Z,62.15
2023-05-24T09:40:25.673Z,59.38
2023-05-24T09:41:54.650Z,56.21
2023-05-24T09:43:41.812Z,55.04
2023-05-24T09:45:15.127Z,55.30
2023-05-24T09:46:38.595Z,55.69
2023-05-24T09:48:12.632Z,56.56
2023-05-24T09:49:36.824Z,57.53
2023-05-24T09:51:03.173Z,57.85
2023-05-24T09:52:36.680Z,58.35
2023-05-24T09:54:17.350Z,58.60
2023-05-24T09:55:53.402Z,58.51
2023-05-24T09:57:36.358Z,58.44
2023-05-24T09:59:02.545Z,58.96
2023-05-24T10:00:36.898Z,58.68
2023-05-24T10:02:12.380Z,59.22
2023-05-24T10:03:46.975Z,59.16
2023-05-24T10:05:20.699Z,59.17
2023-05-24T10:06:44.666Z,59.77
2023-05-24T10:08:21.501Z,59.89
2023-05-24T10:09:45.843Z,60.40
2023-05-24T10:11:14.799Z,60.35
2023-05-24T10:12:48.163Z,60.33
2023-05-24T10:14:09.895Z,59.93
2023-05-24T10:15:55.487Z,59.87
2023-05-24T10:17:28.049Z,60.39
2023-05-24T10:19:12.836Z,60.87
2023-05-24T10:20:40.144Z,60.86
2023-05-24T10:22:16.830Z,60.79
2023-05-24T10:23:38.524Z,61.34
2023-05-24T10:25:21.633Z,60.82
2023-05-24T10:26:56.025Z,61.41
2023-05-24T10:28:20.122Z,61.05
2023-05-24T10:30:12.188Z,61.21
2023-05-24T10:32:05.221Z,60.83
2023-05-24T10:33:46.388Z,61.29
2023-05-24T10:35:27.408Z,61.68
2023-05-24T10:37:01.587Z,61.43
2023-05-24T10:38:28.577Z,61.33
2023-05-24T10:40:14.038Z,61.85
2023-05-24T10:41:40.592Z,62.37
2023-05-24T10:43:16.809Z,62.47
2023-05-24T10:44:50.564Z,60.20
2023-05-24T10:46:30.856Z,56.88
2023-05-24T10:48:05.129Z,55.34
2023-05-24T10:49:50.895Z,55.54
2023-05-24T10:51:15.140Z,55.67
2023-05-24T10:52:48.800Z,56.58
2023-05-24T10:54:17.964Z,56.54
2023-05-24T10:55:52.573Z,57.02
2023-05-24T10:57:25.794Z,56.93
2023-05-24T10:58:59.623Z,57.16
2023-05-24T11:00:36.087Z,56.81
2023-05-24T11:02:08.618Z,57.11
2023-05-24T11:03:33.101Z,57.20
2023-05-24T11:05:06.773Z,57.79
2023-05-24T11:06:41.311Z,58.07
2023-05-24T11:08:14.728Z,57.70
2023-05-24T11:10:02.995Z,58.47
2023-05-24T11:11:37.050Z,57.80
2023-05-24T11:13:10.885Z,58.15
2023-05-24T11:14:52.329Z,57.42
2023-05-24T11:16:27.588Z,57.80
2023-05-24T11:18:13.108Z,58.03
2023-05-24T11:19:35.280Z,59.07
2023-05-24T11:20:59.802Z,59.61
2023-05-24T11:22:33.308Z,59.46
2023-05-24T11:24:00.198Z,59.56
2023-05-24T11:25:32.343Z,59.32
2023-05-24T11:27:06.195Z,59.32
2023-05-24T11:28:37.327Z,59.51
2023-05-24T11:30:10.907Z,59.46
2023-05-24T11:31:46.864Z,59.87
2023-05-24T11:33:22.918Z,59.90
2023-05-24T11:35:04.157Z,59.53
2023-05-24T11:36:40.049Z,59.31
2023-05-24T11:38:04.302Z,59.38
2023-05-24T11:39:30.615Z,58.88
2023-05-24T11:41:04.140Z,58.61
2023-05-24T11:42:37.605Z,58.85
2023-05-24T11:44:00.178Z,59.32
2023-05-24T11:45:35.704Z,58.46
2023-05-24T11:47:30.134Z,58.27
2023-05-24T11:49:06.059Z,58.46
2023-05-24T11:50:51.534Z,58.64
2023-05-24T11:52:15.980Z,58.13
2023-05-24T11:53:50.834Z,57.84
2023-05-24T11:55:16.622Z,57.73
2023-05-24T11:56:51.611Z,58.59
2023-05-24T11:58:27.252Z,57.90
2023-05-24T11:59:54.301Z,57.73
2023-05-24T12:01:16.375Z,57.07
2023-05-24T12:03:01.614Z,56.46
2023-05-24T12:04:31.427Z,57.00
2023-05-24T12:06:09.002Z,57.18
2023-05-24T12:07:48.828Z,56.94
2023-05-24T12:09:16.608Z,57.29
2023-05-24T12:10:43.311Z,57.22
2023-05-24T12:12:12.865Z,58.22
2023-05-24T12:13:46.736Z,57.65
2023-05-24T12:15:27.462Z,57.86
2023-05-24T12:17:07.842Z,57.63
2023-05-24T12:18:29.931Z,57.42
2023-05-24T12:20:03.603Z,57.43
2023-05-24T12:21:25.823Z,58.07
2023-05-24T12:22:47.508Z,57.69
2023-05-24T12:24:21.079Z,57.76
2023-05-24T12:25:54.505Z,57.92
2023-05-24T12:27:28.344Z,58.07
2023-05-24T12:29:02.008Z,58.16
2023-05-24T12:30:42.977Z,58.37
2023-05-24T12:32:13.913Z,59.22
2023-05-24T12:33:36.259Z,59.50
2023-05-24T12:35:09.913Z,59.58
2023-05-24T12:36:43.166Z,60.40
2023-05-24T12:38:05.252Z,60.02
2023-05-24T12:39:45.956Z,60.09
2023-05-24T12:41:17.387Z,60.50
2023-05-24T12:42:41.798Z,61.27
2023-05-24T12:44:03.390Z,61.02
2023-05-24T12:45:37.511Z,61.50
2023-05-24T12:47:23.436Z,61.75
2023-05-24T12:48:47.861Z,61.80
2023-05-24T12:50:12.905Z,62.10
2023-05-24T12:51:45.658Z,62.02
2023-05-24T12:53:29.421Z,61.97
2023-05-24T12:54:56.595Z,62.11
2023-05-24T12:56:32.675Z,62.58
2023-05-24T12:58:14.158Z,62.73
2023-05-24T12:59:48.329Z,60.17
2023-05-24T13:01:33.722Z,56.62
2023-05-24T13:03:00.227Z,55.53
2023-05-24T13:04:45.457Z,55.61
2023-05-24T13:06:09.513Z,56.29
2023-05-24T13:07:42.805Z,56.94
2023-05-24T13:09:12.107Z,57.83
2023-05-24T13:10:57.379Z,58.83
2023-05-24T13:12:27.675Z,59.75
2023-05-24T13:14:08.691Z,60.57
2023-05-24T13:15:34.960Z,61.35
2023-05-24T13:17:19.979Z,61.59
2023-05-24T13:19:05.175Z,61.63
2023-05-24T13:20:34.221Z,62.02
2023-05-24T13:22:08.002Z,63.53
2023-05-24T13:23:43.236Z,62.99
2023-05-24T13:25:15.138Z,60.54
2023-05-24T13:26:49.324Z,57.45
2023-05-24T13:28:35.608Z,55.71
2023-05-24T13:30:00.763Z,56.35
2023-05-24T13:31:37.938Z,57.12
2023-05-24T13:33:14.504Z,57.68
2023-05-24T13:34:39.385Z,58.80
2023-05-24T13:36:19.213Z,59.75
2023-05-24T13:37:52.641Z,60.62
2023-05-24T13:39:28.787Z,61.16
2023-05-24T13:41:03.062Z,62.12
2023-05-24T13:42:48.077Z,62.79
2023-05-24T13:44:22.059Z,60.75
2023-05-24T13:46:04.734Z,57.87
2023-05-24T13:47:39.472Z,55.94
2023-05-24T13:49:17.796Z,55.98
2023-05-24T13:50:51.404Z,56.75
2023-05-24T13:52:27.101Z,57.62
2023-05-24T13:54:11.953Z,58.95
2023-05-24T13:55:46.146Z,59.85
2023-05-24T13:57:19.451Z,60.45
2023-05-24T13:58:55.424Z,61.20
2023-05-24T14:00:28.526Z,61.70
2023-05-24T14:02:09.318Z,62.93
2023-05-24T14:03:43.165Z,62.68
2023-05-24T14:05:28.559Z,60.51
2023-05-24T14:07:18.537Z,57.11
2023-05-24T14:09:12.206Z,55.83
2023-05-24T14:10:48.123Z,56.47
2023-05-24T14:12:21.688Z,57.24
2023-05-24T14:14:58.004Z,58.62
2023-05-24T14:15:53.683Z,59.22
2023-05-24T14:17:18.089Z,59.27
2023-05-24T14:18:51.566Z,59.77
2023-05-24T14:20:25.151Z,60.37
2023-05-24T14:21:58.605Z,60.69
2023-05-24T14:23:39.533Z,61.00
2023-05-24T14:25:13.190Z,60.85
2023-05-24T14:26:49.577Z,61.04
2023-05-24T14:28:13.724Z,61.50
2023-05-24T14:29:47.571Z,61.86
2023-05-24T14:31:23.299Z,62.42
2023-05-24T14:32:54.875Z,61.48
2023-05-24T14:34:24.007Z,58.91
2023-05-24T14:35:46.406Z,56.00
2023-05-24T14:37:13.212Z,54.96
2023-05-24T14:38:36.145Z,55.26
2023-05-24T14:40:01.116Z,56.20
2023-05-24T14:41:34.504Z,57.17
2023-05-24T14:42:56.367Z,58.34
2023-05-24T14:44:29.663Z,59.11
2023-05-24T14:45:59.183Z,59.71
2023-05-24T14:47:35.822Z,60.57
2023-05-24T14:49:17.368Z,61.18
2023-05-24T14:51:02.828Z,61.53
2023-05-24T14:52:27.196Z,61.87
2023-05-24T14:53:49.647Z,62.44
2023-05-24T14:55:25.514Z,63.02
2023-05-24T14:56:59.472Z,61.21
2023-05-24T14:58:23.201Z,58.29
2023-05-24T14:59:49.655Z,55.64
2023-05-24T15:01:13.578Z,55.85
2023-05-24T15:02:54.507Z,56.48
2023-05-24T15:04:24.202Z,57.72
2023-05-24T15:05:51.178Z,58.66
2023-05-24T15:07:37.078Z,59.51
2023-05-24T15:09:13.591Z,60.41
2023-05-24T15:10:46.783Z,60.92
2023-05-24T15:12:13.304Z,61.65
2023-05-24T15:13:38.421Z,62.34
2023-05-24T15:15:19.825Z,63.50
2023-05-24T15:16:53.721Z,62.52
2023-05-24T15:18:28.053Z,59.22
2023-05-24T15:20:05.028Z,56.46
2023-05-24T15:21:56.254Z,56.25
2023-05-24T15:23:29.843Z,57.43
2023-05-24T15:24:52.115Z,58.58
2023-05-24T15:26:14.109Z,59.34
2023-05-24T15:27:47.772Z,60.23
2023-05-24T15:29:21.208Z,60.97
2023-05-24T15:31:06.740Z,62.42
2023-05-24T15:32:42.809Z,63.22
2023-05-24T15:34:07.319Z,61.78
2023-05-24T15:35:31.829Z,59.38
2023-05-24T15:37:01.413Z,56.41
2023-05-24T15:38:42.413Z,55.68
2023-05-24T15:40:31.134Z,56.54
2023-05-24T15:42:11.661Z,57.63
2023-05-24T15:43:45.131Z,58.80
2023-05-24T15:45:30.278Z,59.71
2023-05-24T15:47:15.349Z,60.54
2023-05-24T15:48:44.842Z,61.37
2023-05-24T15:50:31.736Z,62.13
2023-05-24T15:52:03.638Z,63.35
2023-05-24T15:53:50.209Z,62.01
2023-05-24T15:55:35.000Z,59.33
2023-05-24T15:57:03.944Z,55.97
2023-05-24T15:58:49.165Z,55.71
2023-05-24T16:00:29.585Z,57.02
2023-05-24T16:02:10.375Z,57.94
2023-05-24T16:03:43.810Z,59.35
2023-05-24T16:05:21.063Z,60.60
2023-05-24T16:06:46.049Z,61.38
2023-05-24T16:08:19.599Z,62.26
2023-05-24T16:10:00.492Z,63.62
2023-05-24T16:11:30.302Z,62.64
2023-05-24T16:13:06.159Z,60.77
2023-05-24T16:14:28.143Z,57.45
2023-05-24T16:15:57.420Z,56.08
2023-05-24T16:17:27.017Z,56.26
2023-05-24T16:19:00.707Z,57.80
2023-05-24T16:20:36.678Z,59.08
2023-05-24T16:22:22.455Z,60.48
2023-05-24T16:23:55.970Z,61.40
2023-05-24T16:25:27.679Z,62.48
2023-05-24T16:26:52.229Z,63.27
2023-05-24T16:28:33.376Z,61.29
2023-05-24T16:29:58.207Z,58.64
2023-05-24T16:31:22.888Z,56.81
2023-05-24T16:32:57.239Z,56.55
2023-05-24T16:34:23.771Z,57.61
2023-05-24T16:36:00.475Z,58.73
2023-05-24T16:37:26.280Z,59.92
2023-05-24T16:38:59.878Z,61.14
2023-05-24T16:40:29.544Z,62.16
2023-05-24T16:41:54.103Z,63.27
2023-05-24T16:43:39.417Z,63.53
2023-05-24T16:45:34.158Z,61.53
2023-05-24T16:47:03.405Z,57.91
2023-05-24T16:48:43.240Z,56.30
2023-05-24T16:50:15.234Z,56.84
2023-05-24T16:51:56.484Z,57.88
2023-05-24T16:53:23.004Z,59.31
2023-05-24T16:54:56.955Z,60.50
2023-05-24T16:56:27.275Z,61.62
2023-05-24T16:58:03.520Z,62.40
2023-05-24T16:59:28.656Z,63.62
2023-05-24T17:01:09.635Z,62.81
2023-05-24T17:02:43.586Z,59.80
2023-05-24T17:04:24.699Z,56.99
2023-05-24T17:06:13.615Z,56.56
2023-05-24T17:08:00.900Z,57.97
2023-05-24T17:09:49.184Z,59.29
2023-05-24T17:11:29.542Z,60.53
2023-05-24T17:13:03.681Z,61.64
2023-05-24T17:14:48.981Z,62.77
2023-05-24T17:16:14.022Z,63.64
2023-05-24T17:17:59.331Z,61.97
2023-05-24T17:19:36.640Z,59.13
2023-05-24T17:21:13.065Z,56.77
2023-05-24T17:22:49.103Z,56.81
2023-05-24T17:24:34.778Z,58.17
2023-05-24T17:26:09.506Z,59.62
2023-05-24T17:27:44.075Z,61.13
2023-05-24T17:29:39.175Z,62.28
2023-05-24T17:31:12.823Z,63.64
2023-05-24T17:32:41.957Z,62.70
2023-05-24T17:34:04.628Z,60.25
2023-05-24T17:35:38.368Z,57.85
2023-05-24T17:37:00.203Z,56.36
2023-05-24T17:38:24.538Z,57.01
2023-05-24T17:39:54.060Z,58.18
2023-05-24T17:41:16.875Z,59.22
2023-05-24T17:42:50.899Z,60.28
2023-05-24T17:44:36.438Z,61.56
2023-05-24T17:46:06.309Z,63.00
2023-05-24T17:47:39.547Z,63.71
2023-05-24T17:49:17.227Z,61.60
2023-05-24T17:50:39.215Z,59.18
2023-05-24T17:52:16.066Z,56.89
2023-05-24T17:53:53.231Z,56.87
2023-05-24T17:55:27.456Z,57.79
2023-05-24T17:56:57.222Z,59.26
2023-05-24T17:58:44.083Z,60.77
2023-05-24T18:00:17.490Z,62.16
2023-05-24T18:01:46.496Z,63.51
2023-05-24T18:03:11.248Z,63.34
2023-05-24T18:04:56.797Z,61.08
2023-05-24T18:06:18.412Z,58.45
2023-05-24T18:07:52.203Z,56.64
2023-05-24T18:09:37.528Z,57.07
2023-05-24T18:11:12.595Z,58.47
2023-05-24T18:12:53.414Z,60.17
2023-05-24T18:14:38.408Z,61.82
2023-05-24T18:16:23.639Z,63.59
2023-05-24T18:18:01.672Z,63.27
2023-05-24T18:19:26.358Z,61.34
2023-05-24T18:20:51.996Z,58.75
2023-05-24T18:22:38.351Z,56.75
2023-05-24T18:24:12.924Z,57.45
2023-05-24T18:25:49.131Z,58.75
2023-05-24T18:27:11.677Z,60.21
2023-05-24T18:28:45.258Z,61.52
2023-05-24T18:30:19.492Z,63.42
2023-05-24T18:32:02.492Z,63.58
2023-05-24T18:33:49.555Z,60.94
2023-05-24T18:35:36.139Z,58.27
2023-05-24T18:37:09.845Z,57.12
2023-05-24T18:39:04.169Z,58.13
2023-05-24T18:40:46.015Z,60.14
2023-05-24T18:42:31.456Z,61.75
2023-05-24T18:44:11.885Z,63.67
2023-05-24T18:45:49.218Z,63.84
2023-05-24T18:47:35.553Z,61.46
2023-05-24T18:49:12.197Z,58.90
2023-05-24T18:50:36.561Z,56.97
2023-05-24T18:52:03.915Z,57.45
2023-05-24T18:53:27.222Z,58.67
2023-05-24T18:55:12.780Z,60.46
2023-05-24T18:56:46.245Z,61.81
2023-05-24T18:58:28.518Z,63.96
2023-05-24T19:00:02.578Z,63.25
2023-05-24T19:01:27.699Z,61.18
2023-05-24T19:03:13.346Z,58.80
2023-05-24T19:04:49.238Z,57.22
2023-05-24T19:06:26.638Z,58.08
2023-05-24T19:08:03.706Z,59.74
2023-05-24T19:09:49.137Z,61.50
2023-05-24T19:11:23.389Z,63.29
2023-05-24T19:12:45.606Z,64.22
2023-05-24T19:14:29.207Z,62.72
2023-05-24T19:16:02.861Z,59.89
2023-05-24T19:17:36.805Z,57.46
2023-05-24T19:19:31.194Z,57.22
2023-05-24T19:21:00.917Z,58.93
2023-05-24T19:22:27.623Z,60.38
2023-05-24T19:23:58.278Z,61.99
2023-05-24T19:25:44.192Z,63.85
2023-05-24T19:27:18.362Z,63.21
2023-05-24T19:28:54.210Z,61.18
2023-05-24T19:30:40.091Z,58.56
2023-05-24T19:32:04.780Z,57.04
2023-05-24T19:34:00.045Z,58.15
2023-05-24T19:35:35.194Z,60.14
2023-05-24T19:37:05.057Z,61.74
2023-05-24T19:38:29.627Z,63.48
2023-05-24T19:40:03.027Z,64.10
2023-05-24T19:41:39.469Z,62.09
2023-05-24T19:43:04.315Z,60.00
2023-05-24T19:44:29.797Z,57.83
2023-05-24T19:46:05.747Z,57.20
2023-05-24T19:47:32.429Z,58.46
2023-05-24T19:49:09.268Z,60.26
2023-05-24T19:50:47.953Z,61.81
2023-05-24T19:52:23.778Z,63.60
2023-05-24T19:54:09.268Z,64.12
2023-05-24T19:55:45.302Z,61.62
2023-05-24T19:57:19.373Z,59.45
2023-05-24T19:58:53.411Z,57.29
2023-05-24T20:00:17.531Z,57.64
2023-05-24T20:01:43.785Z,59.01
2023-05-24T20:03:36.290Z,60.61
2023-05-24T20:05:17.806Z,62.67
2023-05-24T20:06:44.949Z,64.54